createdAt,value
2022-08-22T00:03:10.013Z,0.00
2022-08-22T00:08:20.708Z,0.00
2022-08-22T00:14:01.390Z,0.00
2022-08-22T00:19:25.018Z,0.00
2022-08-22T00:24:56.916Z,0.00
2022-08-22T00:30:29.041Z,0.00
2022-08-22T00:36:00.738Z,0.00
2022-08-22T00:41:32.768Z,0.00
2022-08-22T00:47:05.111Z,0.00
2022-08-22T00:52:37.446Z,0.00
2022-08-22T00:58:09.446Z,0.00
2022-08-22T01:03:41.111Z,0.00
2022-08-22T01:09:13.080Z,0.00
2022-08-22T01:14:44.814Z,0.00
2022-08-22T01:20:16.696Z,0.00
2022-08-22T01:25:48.462Z,0.00
2022-08-22T01:31:20.527Z,0.00
2022-08-22T01:36:52.552Z,0.00
2022-08-22T01:42:24.624Z,0.00
2022-08-22T01:47:56.518Z,0.00
2022-08-22T01:53:28.657Z,0.00
2022-08-22T01:59:01.644Z,0.00
2022-08-22T02:04:32.447Z,0.00
2022-08-22T02:10:04.347Z,0.00
2022-08-22T02:15:36.092Z,0.00
2022-08-22T02:21:08.094Z,0.00
2022-08-22T02:26:40.158Z,0.00
2022-08-22T02:32:12.191Z,0.00
2022-08-22T02:37:44.020Z,0.00
2022-08-22T02:43:15.982Z,0.00
2022-08-22T02:48:48.282Z,0.00
2022-08-22T02:54:20.081Z,0.00
2022-08-22T02:59:52.131Z,0.00
2022-08-22T03:05:23.855Z,0.00
2022-08-22T03:10:55.763Z,0.00
2022-08-22T03:16:27.338Z,0.00
2022-08-22T03:21:59.117Z,0.00
2022-08-22T03:27:33.238Z,0.00
2022-08-22T03:33:03.457Z,0.00
2022-08-22T03:38:35.847Z,0.00
2022-08-22T03:44:07.891Z,0.00
2022-08-22T03:49:39.849Z,0.00
2022-08-22T03:55:12.209Z,0.00
2022-08-22T04:00:44.413Z,0.00
2022-08-22T04:06:16.557Z,0.00
2022-08-22T04:11:48.844Z,4.00
2022-08-22T04:17:20.821Z,12.00
2022-08-22T04:22:52.917Z,24.00
2022-08-22T04:28:24.710Z,27.15
2022-08-22T04:33:56.509Z,32.35
2022-08-22T04:39:28.401Z,40.80
2022-08-22T04:45:00.861Z,43.00
2022-08-22T04:50:32.860Z,49.95
2022-08-22T05:01:36.817Z,70.00
2022-08-22T05:07:08.592Z,77.85
2022-08-22T05:12:40.959Z,88.70
2022-08-22T05:18:12.941Z,10.75
2022-08-22T05:23:44.524Z,-16.20
2022-08-22T05:29:16.649Z,-2.60
2022-08-22T05:40:21.349Z,38.25
2022-08-22T05:45:53.344Z,61.15
2022-08-22T05:51:25.462Z,81.10
2022-08-22T05:56:57.793Z,94.05
2022-08-22T06:02:29.952Z,112.60
2022-08-22T06:08:02.064Z,131.25
2022-08-22T06:13:34.129Z,157.20
2022-08-22T06:19:19.254Z,188.55
2022-08-22T06:24:38.501Z,216.80
2022-08-22T06:30:10.131Z,236.90
2022-08-22T06:35:41.965Z,271.65
2022-08-22T06:41:13.697Z,246.55
2022-08-22T06:46:47.944Z,671.65
2022-08-22T06:52:19.615Z,904.80
2022-08-22T06:57:51.516Z,296.65
2022-08-22T07:03:23.473Z,495.90
2022-08-22T07:08:55.568Z,447.20
2022-08-22T07:14:27.376Z,393.70
2022-08-22T07:19:59.226Z,377.65
2022-08-22T07:31:02.946Z,298.95
2022-08-22T07:36:34.613Z,1499.65
2022-08-22T07:47:38.130Z,1278.90
2022-08-22T07:58:41.812Z,2001.30
2022-08-22T08:04:13.818Z,1873.25
2022-08-22T08:09:45.596Z,2032.80
2022-08-22T08:15:17.086Z,1907.00
2022-08-22T08:20:48.804Z,2366.30
2022-08-22T08:26:20.726Z,2079.80
2022-08-22T08:31:52.636Z,2556.80
2022-08-22T08:37:24.491Z,2761.30
2022-08-22T08:42:56.502Z,2782.55
2022-08-22T08:48:28.571Z,2790.15
2022-08-22T08:54:00.498Z,3066.70
2022-08-22T08:59:32.474Z,3061.50
2022-08-22T09:10:36.182Z,563.05
2022-08-22T09:16:08.177Z,564.30
2022-08-22T09:21:40.370Z,545.75
2022-08-22T09:23:53.441Z,544.05
2022-08-22T09:29:23.204Z,540.35
2022-08-22T09:34:54.854Z,529.70
2022-08-22T09:45:58.483Z,502.70
2022-08-22T09:51:32.014Z,502.20
2022-08-22T10:02:34.537Z,490.55
2022-08-22T10:08:06.447Z,489.70
2022-08-22T10:13:38.394Z,478.25
2022-08-22T10:19:10.416Z,476.85
2022-08-22T10:24:44.141Z,481.20
2022-08-22T10:30:16.366Z,470.60
2022-08-22T10:35:45.876Z,461.55
2022-08-22T10:41:17.354Z,449.80
2022-08-22T10:46:49.509Z,442.25
2022-08-22T10:52:21.207Z,439.55
2022-08-22T11:03:23.549Z,433.95
2022-08-22T11:08:54.794Z,418.65
2022-08-22T11:19:58.545Z,407.80
2022-08-22T11:25:38.465Z,406.25
2022-08-22T11:31:01.859Z,397.60
2022-08-22T11:36:33.646Z,390.05
2022-08-22T11:42:05.812Z,386.00
2022-08-22T11:47:37.527Z,372.95
2022-08-22T11:53:09.390Z,372.00
2022-08-22T11:58:41.037Z,356.55
2022-08-22T12:04:12.933Z,353.45
2022-08-22T12:09:44.689Z,347.00
2022-08-22T12:23:08.330Z,327.55
2022-08-22T12:28:39.973Z,322.90
2022-08-22T12:34:11.696Z,317.75
2022-08-22T12:39:43.713Z,318.30
2022-08-22T12:45:15.385Z,317.95
2022-08-22T12:50:47.402Z,311.90
2022-08-22T13:01:48.846Z,311.45
2022-08-22T13:07:22.797Z,311.50
2022-08-22T13:12:52.904Z,308.45
2022-08-22T13:18:29.783Z,304.45
2022-08-22T13:26:31.796Z,299.45
2022-08-22T13:31:47.795Z,302.10
2022-08-22T13:42:49.460Z,291.80
2022-08-22T13:48:21.359Z,286.75
2022-08-22T13:56:15.494Z,282.80
2022-08-22T14:01:45.774Z,276.45
2022-08-22T14:07:17.469Z,269.50
2022-08-22T14:12:50.936Z,266.55
2022-08-22T14:18:21.267Z,260.35
2022-08-22T14:23:53.105Z,254.40
2022-08-22T14:29:24.974Z,252.70
2022-08-22T14:34:58.888Z,247.00
2022-08-22T14:40:28.699Z,239.75
2022-08-22T14:46:02.197Z,237.15
2022-08-22T14:51:32.405Z,228.15
2022-08-22T14:57:04.634Z,228.20
2022-08-22T15:02:36.658Z,217.95
2022-08-22T15:08:08.849Z,214.90
2022-08-22T15:13:40.703Z,207.60
2022-08-22T15:24:42.769Z,197.50
2022-08-22T15:30:18.806Z,194.85
2022-08-22T15:35:45.516Z,183.80
2022-08-22T15:41:17.507Z,182.30
2022-08-22T15:52:18.870Z,167.70
2022-08-22T15:57:50.940Z,159.95
2022-08-22T16:03:24.364Z,158.95
2022-08-22T16:08:56.315Z,150.35
2022-08-22T16:14:29.661Z,148.45
2022-08-22T16:20:00.407Z,140.05
2022-08-22T16:25:32.134Z,139.80
2022-08-22T16:31:03.583Z,129.50
2022-08-22T16:36:35.811Z,126.30
2022-08-22T16:42:07.416Z,121.40
2022-08-22T16:47:39.437Z,117.45
2022-08-22T16:53:11.089Z,108.85
2022-08-22T16:58:56.958Z,101.90
2022-08-22T17:04:14.970Z,95.70
2022-08-22T17:09:47.247Z,85.80
2022-08-22T17:15:19.403Z,82.50
2022-08-22T17:20:51.058Z,75.55
2022-08-22T17:26:23.218Z,69.60
2022-08-22T17:31:55.338Z,61.65
2022-08-22T17:37:26.924Z,58.65
2022-08-22T17:42:58.816Z,53.65
2022-08-22T17:48:30.656Z,49.85
2022-08-22T17:54:02.440Z,42.15
2022-08-22T17:59:33.830Z,37.40
2022-08-22T18:05:05.301Z,34.35
2022-08-22T18:10:37.185Z,32.10
2022-08-22T18:16:08.649Z,22.00
2022-08-22T18:21:40.556Z,9.00
2022-08-22T18:27:29.686Z,1.00
2022-08-22T18:32:43.986Z,0.00
2022-08-22T18:38:19.768Z,0.00
2022-08-22T18:43:47.719Z,0.00
2022-08-22T18:51:40.784Z,0.00
2022-08-22T18:57:12.556Z,0.00
2022-08-22T19:02:47.055Z,0.00
2022-08-22T19:08:15.622Z,0.00
2022-08-22T19:13:47.139Z,0.00
2022-08-22T19:19:18.889Z,0.00
2022-08-22T19:24:50.162Z,0.00
2022-08-22T19:30:21.640Z,0.00
2022-08-22T19:35:53.617Z,0.00
2022-08-22T19:41:25.693Z,0.00
2022-08-22T19:46:56.859Z,0.00
2022-08-22T19:52:28.236Z,0.00
2022-08-22T19:57:59.483Z,0.00
2022-08-22T20:03:30.877Z,0.00
2022-08-22T20:09:02.473Z,0.00
2022-08-22T20:14:34.290Z,0.00
2022-08-22T20:20:27.943Z,0.00
2022-08-22T20:25:42.730Z,0.00
2022-08-22T20:31:09.643Z,0.00
2022-08-22T20:36:41.079Z,0.00
2022-08-22T20:42:12.550Z,0.00
2022-08-22T20:47:48.923Z,0.00
2022-08-22T20:53:15.898Z,0.00
2022-08-22T20:58:47.233Z,0.00
2022-08-22T21:04:19.008Z,0.00
2022-08-22T21:09:50.509Z,0.00
2022-08-22T21:15:22.558Z,0.00
2022-08-22T21:20:54.312Z,0.00
2022-08-22T21:26:26.343Z,0.00
2022-08-22T21:31:59.214Z,0.00
2022-08-22T21:37:29.828Z,0.00
2022-08-22T21:43:01.716Z,0.00
2022-08-22T21:48:33.757Z,0.00
2022-08-22T21:54:17.687Z,0.00
2022-08-22T21:59:58.737Z,0.00
2022-08-22T22:05:12.400Z,0.00
2022-08-22T22:10:44.015Z,0.00
2022-08-22T22:16:16.262Z,0.00
2022-08-22T22:21:48.573Z,0.00
2022-08-22T22:27:20.549Z,0.00
2022-08-22T22:32:52.494Z,0.00
2022-08-22T22:38:24.371Z,0.00
2022-08-22T22:43:56.388Z,0.00
2022-08-22T22:49:28.197Z,0.00
2022-08-22T23:00:31.803Z,0.00
2022-08-22T23:06:03.566Z,0.00
2022-08-22T23:11:35.487Z,0.00
2022-08-22T23:22:39.009Z,0.00
2022-08-22T23:28:10.820Z,0.00
2022-08-22T23:33:42.494Z,0.00
2022-08-22T23:44:46.874Z,0.00
2022-08-22T23:55:50.310Z,0.00
